Current Conditions
Clear
Conditions



Pressure
1029.92 (hPa) - 30.41 (inHG)
Visibility

10.0 (km) - 6.2 (miles)
   Temperature
2  °C
36°F
-5  °C
Dewpoint
60  %
 Humidity
   Wind Speed
26  km/h
14  kts
16  mph
7.2  m/s
   Wind Direction
 340°
North North
West
   Airport Data
LHPR
Location Győr-Pér International Airport 10 km (6.22 mi)
Metar :LHPR 231645Z AUTO 34014KT CAVOK 02/M05 Q1030 NOSIG
Sun 23rd January 18:45 pm
   Raw Metar Info
Raw METAR is the most common format in the world for the transmission of observational weather data. It is highly standardized through the International Civil Aviation Organization (ICAO), which allows it to be understood throughout most of the world.
   API Info
Data Provided by
https://www.checkwx.com/weather/LHPR
   © Info
CSS/SVG/PHP scripts were developed by weather34.com for use in the weather34 template © 2015-2022

Guide Info provided by Metar-Wikipedia